createdAt,value
2023-04-21T00:01:20.491Z,99376.47
2023-04-21T00:02:52.705Z,99374.78
2023-04-21T00:04:25.457Z,99373.94
2023-04-21T00:06:00.647Z,99373.97
2023-04-21T00:07:34.500Z,99369.66
2023-04-21T00:09:06.559Z,99365.41
2023-04-21T00:10:38.725Z,99368.03
2023-04-21T00:12:10.836Z,99370.66
2023-04-21T00:13:43.103Z,99363.78
2023-04-21T00:15:15.100Z,99365.59
2023-04-21T00:16:47.676Z,99365.63
2023-04-21T00:18:19.714Z,99370.81
2023-04-21T00:19:52.261Z,99361.44
2023-04-21T00:21:24.395Z,99363.19
2023-04-21T00:22:57.236Z,99363.22
2023-04-21T00:24:29.352Z,99368.44
2023-04-21T00:26:03.221Z,99367.59
2023-04-21T00:27:35.392Z,99358.22
2023-04-21T00:29:07.511Z,99365.94
2023-04-21T00:30:39.622Z,99364.25
2023-04-21T00:32:11.914Z,99363.34
2023-04-21T00:33:44.009Z,99369.34
2023-04-21T00:35:16.120Z,99365.84
2023-04-21T00:36:48.322Z,99369.25
2023-04-21T00:38:20.583Z,99364.00
2023-04-21T00:39:52.714Z,99375.19
2023-04-21T00:41:24.811Z,99370.97
2023-04-21T00:42:56.950Z,99373.69
2023-04-21T00:44:29.018Z,99376.31
2023-04-21T00:46:01.175Z,99372.91
2023-04-21T00:47:33.540Z,99364.31
2023-04-21T00:49:07.581Z,99365.09
2023-04-21T00:50:39.640Z,99369.34
2023-04-21T00:52:12.189Z,99359.94
2023-04-21T00:53:44.718Z,99361.69
2023-04-21T00:55:17.284Z,99361.78
2023-04-21T00:56:49.755Z,99373.03
2023-04-21T00:58:21.922Z,99371.38
2023-04-21T00:59:53.991Z,99367.13
2023-04-21T01:01:26.438Z,99363.72
2023-04-21T01:03:00.659Z,99369.66
2023-04-21T01:04:37.421Z,99365.38
2023-04-21T01:06:10.088Z,99370.47
2023-04-21T01:07:42.232Z,99374.91
2023-04-21T01:09:14.387Z,99368.97
2023-04-21T01:10:46.502Z,99368.22
2023-04-21T01:12:18.569Z,99367.41
2023-04-21T01:13:54.285Z,99371.75
2023-04-21T01:15:27.859Z,99367.59
2023-04-21T01:17:00.382Z,99366.78
2023-04-21T01:18:32.652Z,99370.34
2023-04-21T01:20:09.405Z,99370.34
2023-04-21T01:21:42.076Z,99366.19
2023-04-21T01:23:14.205Z,99361.13
2023-04-21T01:24:48.209Z,99367.13
2023-04-21T01:26:21.977Z,99370.59
2023-04-21T01:27:54.116Z,99364.53
2023-04-21T01:29:26.343Z,99364.53
2023-04-21T01:30:58.494Z,99359.41
2023-04-21T01:32:30.932Z,99367.13
2023-04-21T01:34:06.331Z,99366.22
2023-04-21T01:35:38.428Z,99367.13
2023-04-21T01:37:17.904Z,99365.38
2023-04-21T01:38:49.974Z,99372.34
2023-04-21T01:40:22.092Z,99373.25
2023-04-21T01:41:56.086Z,99366.38
2023-04-21T01:43:28.206Z,99368.13
2023-04-21T01:45:00.762Z,99369.78
2023-04-21T01:46:32.868Z,99361.16
2023-04-21T01:48:05.148Z,99363.72
2023-04-21T01:49:37.250Z,99368.03
2023-04-21T01:51:09.330Z,99369.78
2023-04-21T01:52:42.033Z,99368.09
2023-04-21T01:54:14.326Z,99375.88
2023-04-21T01:55:46.403Z,99375.06
2023-04-21T01:57:18.738Z,99379.41
2023-04-21T01:58:50.972Z,99377.72
2023-04-21T02:00:23.028Z,99378.56
2023-04-21T02:01:55.160Z,99380.34
2023-04-21T02:03:27.540Z,99380.38
2023-04-21T02:04:59.670Z,99383.88
2023-04-21T02:06:32.085Z,99382.22
2023-04-21T02:08:04.275Z,99372.81
2023-04-21T02:09:36.968Z,99372.81
2023-04-21T02:11:09.052Z,99370.28
2023-04-21T02:12:41.098Z,99378.03
2023-04-21T02:14:13.201Z,99377.16
2023-04-21T02:15:45.458Z,99378.03
2023-04-21T02:17:18.209Z,99368.56
2023-04-21T02:18:50.439Z,99376.28
2023-04-21T02:20:22.552Z,99380.66
2023-04-21T02:21:54.616Z,99381.53
2023-04-21T02:23:26.707Z,99378.09
2023-04-21T02:24:58.852Z,99380.69
2023-04-21T02:26:31.103Z,99379.00
2023-04-21T02:28:03.300Z,99379.00
2023-04-21T02:29:35.361Z,99380.72
2023-04-21T02:31:07.643Z,99378.13
2023-04-21T02:32:43.305Z,99379.81
2023-04-21T02:34:15.563Z,99377.19
2023-04-21T02:35:47.672Z,99380.56
2023-04-21T02:37:20.060Z,99383.97
2023-04-21T02:38:52.433Z,99376.22
2023-04-21T02:40:24.619Z,99377.13
2023-04-21T02:41:57.207Z,99377.13
2023-04-21T02:43:29.291Z,99384.00
2023-04-21T02:45:01.460Z,99390.06
2023-04-21T02:46:33.595Z,99380.59
2023-04-21T02:48:06.016Z,99374.63
2023-04-21T02:49:44.393Z,99380.59
2023-04-21T02:51:16.580Z,99383.25
2023-04-21T02:52:48.673Z,99367.81
2023-04-21T02:54:20.769Z,99373.84
2023-04-21T02:55:53.133Z,99380.66
2023-04-21T02:57:25.207Z,99372.09
2023-04-21T02:58:57.537Z,99375.50
2023-04-21T03:00:29.688Z,99380.66
2023-04-21T03:02:01.880Z,99369.47
2023-04-21T03:03:34.281Z,99372.06
2023-04-21T03:05:06.982Z,99379.78
2023-04-21T03:06:39.061Z,99370.38
2023-04-21T03:08:11.215Z,99366.91
2023-04-21T03:09:43.388Z,99371.16
2023-04-21T03:11:15.664Z,99378.84
2023-04-21T03:12:50.497Z,99378.81
2023-04-21T03:14:22.640Z,99373.66
2023-04-21T03:15:54.742Z,99371.91
2023-04-21T03:17:27.381Z,99379.63
2023-04-21T03:18:59.486Z,99376.16
2023-04-21T03:20:31.664Z,99382.13
2023-04-21T03:22:04.484Z,99374.38
2023-04-21T03:23:36.589Z,99375.19
2023-04-21T03:25:08.833Z,99369.16
2023-04-21T03:26:41.521Z,99388.88
2023-04-21T03:28:14.098Z,99375.19
2023-04-21T03:29:46.200Z,99378.66
2023-04-21T03:31:18.350Z,99382.03
2023-04-21T03:32:51.085Z,99380.31
2023-04-21T03:34:23.287Z,99385.41
2023-04-21T03:35:55.501Z,99375.91
2023-04-21T03:37:27.838Z,99384.47
2023-04-21T03:39:12.769Z,99381.84
2023-04-21T03:40:52.209Z,99380.97
2023-04-21T03:42:24.470Z,99375.81
2023-04-21T03:43:56.540Z,99380.97
2023-04-21T03:45:28.951Z,99383.56
2023-04-21T03:47:01.210Z,99384.38
2023-04-21T03:48:33.381Z,99388.59
2023-04-21T03:50:06.339Z,99388.56
2023-04-21T03:51:38.496Z,99381.69
2023-04-21T03:53:10.732Z,99379.06
2023-04-21T03:54:42.841Z,99388.50
2023-04-21T03:56:14.978Z,99392.72
2023-04-21T03:57:47.235Z,99405.59
2023-04-21T03:59:19.471Z,99399.50
2023-04-21T04:00:51.796Z,99407.22
2023-04-21T04:02:24.061Z,99402.88
2023-04-21T04:03:56.585Z,99399.34
2023-04-21T04:05:29.028Z,99400.13
2023-04-21T04:07:01.252Z,99406.09
2023-04-21T04:08:33.375Z,99404.34
2023-04-21T04:10:05.706Z,99404.28
2023-04-21T04:11:37.837Z,99414.50
2023-04-21T04:13:10.135Z,99421.31
2023-04-21T04:14:42.273Z,99416.09
2023-04-21T04:16:14.423Z,99425.50
2023-04-21T04:17:46.637Z,99428.91
2023-04-21T04:19:19.121Z,99425.47
2023-04-21T04:20:51.497Z,99432.28
2023-04-21T04:22:23.585Z,99430.53
2023-04-21T04:23:56.088Z,99428.78
2023-04-21T04:25:28.312Z,99427.84
2023-04-21T04:27:02.660Z,99435.50
2023-04-21T04:28:35.313Z,99435.44
2023-04-21T04:30:08.233Z,99438.84
2023-04-21T04:31:40.523Z,99452.53
2023-04-21T04:33:12.774Z,99445.56
2023-04-21T04:34:45.153Z,99445.53
2023-04-21T04:36:17.280Z,99446.34
2023-04-21T04:37:50.152Z,99445.44
2023-04-21T04:39:23.107Z,99455.69
2023-04-21T04:40:55.940Z,99445.25
2023-04-21T04:42:28.030Z,99452.13
2023-04-21T04:44:01.095Z,99453.78
2023-04-21T04:45:33.565Z,99451.13
2023-04-21T04:47:06.090Z,99450.19
2023-04-21T04:48:38.411Z,99458.75
2023-04-21T04:50:10.756Z,99454.34
2023-04-21T04:51:42.963Z,99450.00
2023-04-21T04:53:15.128Z,99449.91
2023-04-21T04:54:47.236Z,99454.13
2023-04-21T04:56:19.307Z,99448.03
2023-04-21T04:57:52.155Z,99456.53
2023-04-21T04:59:24.307Z,99450.41
2023-04-21T05:00:56.466Z,99455.44
2023-04-21T05:02:28.794Z,99463.09
2023-04-21T05:04:01.183Z,99450.88
2023-04-21T05:05:33.606Z,99443.84
2023-04-21T05:07:08.078Z,99450.63
2023-04-21T05:08:41.852Z,99442.72
2023-04-21T05:10:14.192Z,99453.78
2023-04-21T05:11:46.285Z,99453.75
2023-04-21T05:13:18.721Z,99461.31
2023-04-21T05:14:50.978Z,99459.50
2023-04-21T05:16:23.215Z,99455.97
2023-04-21T05:17:55.506Z,99455.84
2023-04-21T05:19:27.677Z,99458.22
2023-04-21T05:20:59.823Z,99454.69
2023-04-21T05:22:31.985Z,99457.13
2023-04-21T05:24:04.379Z,99456.13
2023-04-21T05:25:38.929Z,99453.44
2023-04-21T05:27:11.167Z,99452.47
2023-04-21T05:28:43.353Z,99459.22
2023-04-21T05:30:15.488Z,99460.81
2023-04-21T05:31:47.635Z,99461.59
2023-04-21T05:33:20.185Z,99460.63
2023-04-21T05:34:52.633Z,99461.34
2023-04-21T05:36:25.444Z,99464.69
2023-04-21T05:37:57.590Z,99459.41
2023-04-21T05:39:29.676Z,99459.28
2023-04-21T05:41:01.825Z,99460.03
2023-04-21T05:42:33.935Z,99466.81
2023-04-21T05:44:06.213Z,99464.13
2023-04-21T05:45:41.582Z,99463.19
2023-04-21T05:47:13.851Z,99460.59
2023-04-21T05:48:46.082Z,99469.13
2023-04-21T05:50:18.237Z,99465.63
2023-04-21T05:51:50.372Z,99464.78
2023-04-21T05:53:24.080Z,99466.28
2023-04-21T05:54:56.179Z,99469.69
2023-04-21T05:56:28.293Z,99467.88
2023-04-21T05:58:00.427Z,99470.34
2023-04-21T05:59:32.561Z,99467.66
2023-04-21T06:01:05.090Z,99466.69
2023-04-21T06:02:37.582Z,99466.63
2023-04-21T06:04:10.166Z,99473.44
2023-04-21T06:05:42.595Z,99469.03
2023-04-21T06:07:15.566Z,99459.47
2023-04-21T06:08:48.983Z,99457.66
2023-04-21T06:10:21.610Z,99461.81
2023-04-21T06:11:53.818Z,99462.63
2023-04-21T06:13:27.897Z,99465.97
2023-04-21T06:15:00.330Z,99470.25
2023-04-21T06:16:34.777Z,99470.09
2023-04-21T06:18:07.185Z,99467.50
2023-04-21T06:19:41.273Z,99466.56
2023-04-21T06:21:14.081Z,99472.44
2023-04-21T06:22:49.265Z,99462.88
2023-04-21T06:24:25.786Z,99470.47
2023-04-21T06:26:05.820Z,99458.13
2023-04-21T06:27:38.026Z,99460.66
2023-04-21T06:29:10.195Z,99463.03
2023-04-21T06:30:42.566Z,99460.28
2023-04-21T06:32:14.694Z,99460.09
2023-04-21T06:33:46.871Z,99459.84
2023-04-21T06:35:20.841Z,99463.09
2023-04-21T06:36:53.603Z,99448.09
2023-04-21T06:38:25.826Z,99450.44
2023-04-21T06:39:57.962Z,99444.16
2023-04-21T06:41:30.233Z,99447.47
2023-04-21T06:43:02.413Z,99447.31
2023-04-21T06:44:34.665Z,99449.72
2023-04-21T06:46:06.898Z,99447.03
2023-04-21T06:47:39.079Z,99447.66
2023-04-21T06:49:11.567Z,99445.03
2023-04-21T06:50:45.136Z,99446.56
2023-04-21T06:52:18.290Z,99454.06
2023-04-21T06:53:52.145Z,99454.09
2023-04-21T06:55:24.580Z,99452.28
2023-04-21T06:56:57.675Z,99448.72
2023-04-21T06:58:29.813Z,99451.28
2023-04-21T07:00:01.914Z,99452.09
2023-04-21T07:01:34.179Z,99447.72
2023-04-21T07:03:07.027Z,99451.00
2023-04-21T07:04:39.522Z,99453.38
2023-04-21T07:06:11.693Z,99459.25
2023-04-21T07:07:43.903Z,99456.44
2023-04-21T07:09:16.050Z,99460.59
2023-04-21T07:10:48.201Z,99459.59
2023-04-21T07:12:20.336Z,99461.09
2023-04-21T07:13:52.585Z,99461.00
2023-04-21T07:15:24.742Z,99458.19
2023-04-21T07:16:57.669Z,99458.91
2023-04-21T07:18:29.880Z,99469.06
2023-04-21T07:20:02.251Z,99461.91
2023-04-21T07:21:36.585Z,99465.25
2023-04-21T07:23:08.682Z,99459.94
2023-04-21T07:24:40.965Z,99464.97
2023-04-21T07:26:13.221Z,99475.28
2023-04-21T07:27:45.368Z,99469.09
2023-04-21T07:29:17.767Z,99468.13
2023-04-21T07:30:50.354Z,99469.72
2023-04-21T07:32:22.601Z,99470.56
2023-04-21T07:33:54.824Z,99470.59
2023-04-21T07:35:29.109Z,99459.97
2023-04-21T07:37:01.266Z,99468.56
2023-04-21T07:38:34.731Z,99469.38
2023-04-21T07:40:11.565Z,99474.44
2023-04-21T07:41:44.154Z,99471.06
2023-04-21T07:43:16.372Z,99469.28
2023-04-21T07:44:49.315Z,99473.53
2023-04-21T07:46:23.315Z,99477.66
2023-04-21T07:47:55.600Z,99475.00
2023-04-21T07:49:27.903Z,99473.91
2023-04-21T07:51:00.880Z,99480.63
2023-04-21T07:52:33.110Z,99483.84
2023-04-21T07:54:05.311Z,99475.84
2023-04-21T07:55:37.763Z,99480.22
2023-04-21T07:57:10.142Z,99472.28
2023-04-21T07:58:42.335Z,99476.34
2023-04-21T08:00:15.247Z,99476.22
2023-04-21T08:01:47.469Z,99477.06
2023-04-21T08:03:22.189Z,99473.34
2023-04-21T08:04:56.251Z,99479.97
2023-04-21T08:06:29.322Z,99474.53
2023-04-21T08:08:01.687Z,99478.56
2023-04-21T08:09:33.908Z,99477.56
2023-04-21T08:11:06.184Z,99482.47
2023-04-21T08:12:38.331Z,99476.88
2023-04-21T08:14:12.293Z,99477.28
2023-04-21T08:15:44.408Z,99474.06
2023-04-21T08:17:16.763Z,99472.75
2023-04-21T08:18:48.907Z,99469.75
2023-04-21T08:20:21.021Z,99467.56
2023-04-21T08:21:53.209Z,99462.00
2023-04-21T08:23:25.428Z,99465.25
2023-04-21T08:24:57.726Z,99466.75
2023-04-21T08:26:30.774Z,99463.16
2023-04-21T08:28:02.994Z,99469.09
2023-04-21T08:29:35.212Z,99463.75
2023-04-21T08:31:07.358Z,99464.00
2023-04-21T08:32:39.539Z,99468.31
2023-04-21T08:34:11.673Z,99465.56
2023-04-21T08:35:54.941Z,99470.63
2023-04-21T08:37:36.083Z,99463.66
2023-04-21T08:39:08.250Z,99461.81
2023-04-21T08:40:40.489Z,99466.91
2023-04-21T08:42:19.490Z,99464.16
2023-04-21T08:43:51.687Z,99465.75
2023-04-21T08:45:23.938Z,99462.47
2023-04-21T08:46:56.513Z,99468.25
2023-04-21T08:48:30.297Z,99469.81
2023-04-21T08:50:02.571Z,99462.75
2023-04-21T08:51:35.296Z,99465.28
2023-04-21T08:53:07.526Z,99466.84
2023-04-21T08:54:39.808Z,99466.25
2023-04-21T08:56:12.127Z,99463.34
2023-04-21T08:57:44.247Z,99456.09
2023-04-21T08:59:17.066Z,99458.31
2023-04-21T09:00:50.073Z,99454.59
2023-04-21T09:02:22.868Z,99454.59
2023-04-21T09:03:55.321Z,99454.59
2023-04-21T09:05:32.761Z,99452.59
2023-04-21T09:07:05.108Z,99450.97
2023-04-21T09:08:43.867Z,99450.63
2023-04-21T09:10:16.234Z,99450.69
2023-04-21T09:11:59.107Z,99446.16
2023-04-21T09:13:33.262Z,99446.00
2023-04-21T09:15:06.286Z,99447.47
2023-04-21T09:16:38.550Z,99449.66
2023-04-21T09:18:21.642Z,99448.41
2023-04-21T09:19:54.368Z,99441.41
2023-04-21T09:21:31.444Z,99443.72
2023-04-21T09:23:07.783Z,99441.56
2023-04-21T09:24:58.336Z,99439.59
2023-04-21T09:26:32.264Z,99435.00
2023-04-21T09:28:04.722Z,99430.41
2023-04-21T09:29:36.913Z,99432.53
2023-04-21T09:31:17.759Z,99436.44
2023-04-21T09:32:50.496Z,99427.75
2023-04-21T09:34:25.349Z,99428.53
2023-04-21T09:36:01.730Z,99431.06
2023-04-21T09:37:35.058Z,99434.44
2023-04-21T09:40:42.873Z,99440.28
2023-04-21T09:42:15.052Z,99429.47
2023-04-21T09:43:47.221Z,99435.97
2023-04-21T09:47:04.478Z,99434.88
2023-04-21T09:48:37.248Z,99430.78
2023-04-21T09:50:12.678Z,99432.72
2023-04-21T09:52:06.048Z,99430.44
2023-04-21T09:53:40.937Z,99426.28
2023-04-21T09:55:13.724Z,99424.13
2023-04-21T09:56:50.009Z,99422.53
2023-04-21T09:58:25.167Z,99419.53
2023-04-21T10:00:05.786Z,99425.94
2023-04-21T10:01:39.533Z,99414.91
2023-04-21T10:03:12.977Z,99411.66
2023-04-21T10:04:45.728Z,99415.50
2023-04-21T10:06:18.192Z,99401.94
2023-04-21T10:07:51.142Z,99405.59
2023-04-21T10:09:24.677Z,99401.53
2023-04-21T10:10:56.738Z,99403.66
2023-04-21T10:12:29.159Z,99401.09
2023-04-21T10:14:01.535Z,99405.50
2023-04-21T10:15:40.182Z,99397.47
2023-04-21T10:17:12.845Z,99401.19
2023-04-21T10:18:46.298Z,99398.22
2023-04-21T10:20:18.678Z,99399.75
2023-04-21T10:21:51.353Z,99399.94
2023-04-21T10:23:38.037Z,99393.97
2023-04-21T10:25:10.684Z,99397.63
2023-04-21T10:26:42.935Z,99397.47
2023-04-21T10:28:19.005Z,99389.16
2023-04-21T10:29:56.664Z,99387.13
2023-04-21T10:31:48.102Z,99397.56
2023-04-21T10:33:24.521Z,99383.88
2023-04-21T10:34:57.752Z,99389.34
2023-04-21T10:36:29.970Z,99393.94
2023-04-21T10:38:02.139Z,99390.75
2023-04-21T10:39:44.752Z,99384.44
2023-04-21T10:41:33.344Z,99378.75
2023-04-21T10:43:05.996Z,99387.38
2023-04-21T10:44:42.856Z,99378.41
2023-04-21T10:46:37.054Z,99378.56
2023-04-21T10:48:16.331Z,99374.00
2023-04-21T10:49:50.632Z,99369.88
2023-04-21T10:51:23.333Z,99379.69
2023-04-21T10:53:09.114Z,99367.88
2023-04-21T10:54:47.495Z,99377.25
2023-04-21T10:56:20.109Z,99372.19
2023-04-21T10:57:52.254Z,99371.19
2023-04-21T10:59:25.469Z,99373.69
2023-04-21T11:00:59.604Z,99369.31
2023-04-21T11:02:31.880Z,99373.53
2023-04-21T11:04:04.865Z,99376.63
2023-04-21T11:05:41.697Z,99370.34
2023-04-21T11:07:18.945Z,99367.06
2023-04-21T11:08:58.129Z,99363.25
2023-04-21T11:10:30.370Z,99339.47
2023-04-21T11:12:10.535Z,99360.81
2023-04-21T11:13:42.642Z,99354.25
2023-04-21T11:15:16.269Z,99355.38
2023-04-21T11:16:48.485Z,99360.41
2023-04-21T11:18:21.329Z,99354.81
2023-04-21T11:19:55.073Z,99358.66
2023-04-21T11:21:30.375Z,99354.06
2023-04-21T11:23:02.478Z,99363.16
2023-04-21T11:24:34.897Z,99358.94
2023-04-21T11:26:06.975Z,99361.00
2023-04-21T11:27:39.087Z,99354.25
2023-04-21T11:29:12.607Z,99357.63
2023-04-21T11:30:44.707Z,99361.38
2023-04-21T11:32:17.469Z,99349.75
2023-04-21T11:33:51.078Z,99356.13
2023-04-21T11:35:23.802Z,99357.25
2023-04-21T11:36:56.665Z,99351.63
2023-04-21T11:38:43.068Z,99345.16
2023-04-21T11:40:15.164Z,99349.63
2023-04-21T11:41:48.849Z,99354.50
2023-04-21T11:43:21.969Z,99337.72
2023-04-21T11:44:57.979Z,99344.50
2023-04-21T11:46:30.145Z,99345.13
2023-04-21T11:48:16.060Z,99343.53
2023-04-21T11:49:57.086Z,99346.53
2023-04-21T11:51:37.707Z,99344.56
2023-04-21T11:53:09.789Z,99339.34
2023-04-21T11:54:41.948Z,99341.59
2023-04-21T11:56:19.331Z,99344.88
2023-04-21T11:57:54.247Z,99340.91
2023-04-21T11:59:27.027Z,99333.88
2023-04-21T12:00:59.195Z,99333.06
2023-04-21T12:02:32.830Z,99340.84
2023-04-21T12:04:05.407Z,99337.09
2023-04-21T12:05:38.066Z,99334.75
2023-04-21T12:07:10.363Z,99340.84
2023-04-21T12:08:42.549Z,99336.72
2023-04-21T12:10:19.331Z,99336.41
2023-04-21T12:11:53.078Z,99328.69
2023-04-21T12:13:27.637Z,99339.94
2023-04-21T12:15:03.835Z,99341.69
2023-04-21T12:16:37.952Z,99333.34
2023-04-21T12:18:14.900Z,99335.00
2023-04-21T12:19:47.488Z,99330.31
2023-04-21T12:21:19.616Z,99330.56
2023-04-21T12:22:52.782Z,99335.03
2023-04-21T12:24:25.274Z,99335.91
2023-04-21T12:25:58.092Z,99337.19
2023-04-21T12:27:30.255Z,99335.03
2023-04-21T12:29:02.504Z,99333.75
2023-04-21T12:30:38.008Z,99331.16
2023-04-21T12:32:12.159Z,99340.56
2023-04-21T12:33:44.605Z,99328.00
2023-04-21T12:35:16.903Z,99334.75
2023-04-21T12:36:51.080Z,99347.41
2023-04-21T12:38:23.386Z,99335.13
2023-04-21T12:39:55.536Z,99332.97
2023-04-21T12:41:27.688Z,99321.25
2023-04-21T12:42:59.754Z,99324.25
2023-04-21T12:44:32.121Z,99328.44
2023-04-21T12:46:04.387Z,99323.84
2023-04-21T12:47:38.019Z,99327.13
2023-04-21T12:49:11.534Z,99326.91
2023-04-21T12:50:43.736Z,99326.38
2023-04-21T12:52:15.875Z,99324.50
2023-04-21T12:53:48.021Z,99321.69
2023-04-21T12:55:20.103Z,99321.97
2023-04-21T12:56:52.234Z,99322.28
2023-04-21T12:58:24.342Z,99317.38
2023-04-21T12:59:56.465Z,99316.38
2023-04-21T13:01:28.710Z,99316.81
2023-04-21T13:03:01.584Z,99324.22
2023-04-21T13:04:34.057Z,99311.13
2023-04-21T13:06:06.868Z,99318.50
2023-04-21T13:07:39.382Z,99319.53
2023-04-21T13:09:11.892Z,99318.78
2023-04-21T13:10:46.228Z,99323.53
2023-04-21T13:12:18.383Z,99317.53
2023-04-21T13:13:50.794Z,99318.50
2023-04-21T13:15:22.986Z,99310.50
2023-04-21T13:16:55.182Z,99308.75
2023-04-21T13:18:27.523Z,99315.22
2023-04-21T13:19:59.696Z,99320.78
2023-04-21T13:21:33.135Z,99320.13
2023-04-21T13:23:05.649Z,99318.91
2023-04-21T13:24:37.895Z,99310.75
2023-04-21T13:26:10.039Z,99313.25
2023-04-21T13:27:42.413Z,99316.44
2023-04-21T13:29:14.647Z,99313.44
2023-04-21T13:30:47.019Z,99310.91
2023-04-21T13:32:19.212Z,99312.63
2023-04-21T13:33:53.015Z,99317.13
2023-04-21T13:35:26.271Z,99318.81
2023-04-21T13:36:58.388Z,99315.66
2023-04-21T13:38:30.899Z,99310.75
2023-04-21T13:40:03.317Z,99319.06
2023-04-21T13:41:35.612Z,99312.88
2023-04-21T13:44:46.795Z,99292.91
2023-04-21T13:46:20.290Z,99308.75
2023-04-21T13:47:52.664Z,99310.91
2023-04-21T13:49:25.053Z,99309.66
2023-04-21T13:50:57.256Z,99306.09
2023-04-21T13:52:29.406Z,99307.47
2023-04-21T13:54:01.621Z,99298.97
2023-04-21T13:55:33.785Z,99306.50
2023-04-21T13:57:06.091Z,99309.47
2023-04-21T13:58:38.548Z,99304.28
2023-04-21T14:00:13.914Z,99302.56
2023-04-21T14:01:46.073Z,99299.69
2023-04-21T14:03:18.445Z,99303.66
2023-04-21T14:04:51.051Z,99307.50
2023-04-21T14:06:23.428Z,99305.84
2023-04-21T14:07:55.654Z,99302.22
2023-04-21T14:09:27.758Z,99304.75
2023-04-21T14:10:59.914Z,99309.97
2023-04-21T14:12:32.237Z,99304.72
2023-04-21T14:15:39.513Z,99302.88
2023-04-21T14:17:11.946Z,99294.88
2023-04-21T14:18:45.643Z,99294.88
2023-04-21T14:20:17.801Z,99292.50
2023-04-21T14:21:49.953Z,99295.47
2023-04-21T14:23:22.135Z,99295.97
2023-04-21T14:24:54.636Z,99290.13
2023-04-21T14:26:26.855Z,99292.22
2023-04-21T14:27:59.252Z,99292.41
2023-04-21T14:29:31.670Z,99292.03
2023-04-21T14:31:04.814Z,99292.44
2023-04-21T14:32:37.221Z,99294.91
2023-04-21T14:34:09.432Z,99293.34
2023-04-21T14:35:42.515Z,99287.56
2023-04-21T14:37:14.755Z,99288.28
2023-04-21T14:38:47.053Z,99285.16
2023-04-21T14:40:19.457Z,99288.44
2023-04-21T14:41:52.240Z,99284.91
2023-04-21T14:43:24.609Z,99288.28
2023-04-21T14:44:56.711Z,99287.72
2023-04-21T14:46:29.479Z,99285.72
2023-04-21T14:48:01.790Z,99289.84
2023-04-21T14:49:34.294Z,99294.66
2023-04-21T14:51:09.754Z,99296.94
2023-04-21T14:52:42.214Z,99290.75
2023-04-21T14:54:14.340Z,99287.38
2023-04-21T14:55:46.429Z,99291.63
2023-04-21T14:57:21.084Z,99287.56
2023-04-21T14:58:53.486Z,99292.38
2023-04-21T15:00:26.278Z,99286.38
2023-04-21T15:01:58.341Z,99281.66
2023-04-21T15:03:30.608Z,99287.31
2023-04-21T15:05:03.888Z,99292.16
2023-04-21T15:06:35.896Z,99286.53
2023-04-21T15:08:09.340Z,99289.16
2023-04-21T15:09:45.953Z,99281.94
2023-04-21T15:11:18.164Z,99286.03
2023-04-21T15:12:50.291Z,99282.06
2023-04-21T15:14:22.749Z,99281.88
2023-04-21T15:15:54.908Z,99285.44
2023-04-21T15:17:27.215Z,99286.75
2023-04-21T15:18:59.675Z,99294.78
2023-04-21T15:20:43.971Z,99294.53
2023-04-21T15:22:17.648Z,99295.56
2023-04-21T15:23:49.748Z,99297.06
2023-04-21T15:25:21.953Z,99295.41
2023-04-21T15:26:54.082Z,99300.06
2023-04-21T15:28:26.552Z,99305.44
2023-04-21T15:29:58.800Z,99296.53
2023-04-21T15:31:31.746Z,99299.00
2023-04-21T15:33:04.046Z,99301.78
2023-04-21T15:34:36.321Z,99303.56
2023-04-21T15:36:08.597Z,99294.19
2023-04-21T15:37:40.861Z,99302.91
2023-04-21T15:39:16.031Z,99307.78
2023-04-21T15:41:00.275Z,99301.78
2023-04-21T15:42:33.190Z,99304.03
2023-04-21T15:44:05.599Z,99301.41
2023-04-21T15:45:37.911Z,99297.13
2023-04-21T15:47:10.050Z,99294.66
2023-04-21T15:48:42.904Z,99296.91
2023-04-21T15:50:16.413Z,99301.88
2023-04-21T15:51:48.481Z,99304.31
2023-04-21T15:53:20.860Z,99299.44
2023-04-21T15:54:53.061Z,99304.69
2023-04-21T15:58:37.781Z,99302.63
2023-04-21T16:00:13.170Z,99306.38
2023-04-21T16:01:45.435Z,99302.16
2023-04-21T16:03:18.573Z,99307.31
2023-04-21T16:04:51.088Z,99308.03
2023-04-21T16:06:24.543Z,99308.44
2023-04-21T16:07:56.603Z,99305.72
2023-04-21T16:09:28.703Z,99311.88
2023-04-21T16:11:01.423Z,99309.34
2023-04-21T16:12:33.611Z,99308.69
2023-04-21T16:14:06.319Z,99311.56
2023-04-21T16:15:38.647Z,99310.91
2023-04-21T16:17:11.127Z,99313.03
2023-04-21T16:18:43.487Z,99316.19
2023-04-21T16:20:16.087Z,99315.78
2023-04-21T16:21:48.250Z,99316.69
2023-04-21T16:23:20.431Z,99316.88
2023-04-21T16:24:53.627Z,99326.59
2023-04-21T16:26:25.597Z,99317.91
2023-04-21T16:27:57.879Z,99317.56
2023-04-21T16:29:30.349Z,99323.06
2023-04-21T16:31:05.720Z,99321.81
2023-04-21T16:32:38.012Z,99329.06
2023-04-21T16:34:10.360Z,99322.50
2023-04-21T16:35:42.575Z,99324.50
2023-04-21T16:37:14.901Z,99330.81
2023-04-21T16:38:47.241Z,99321.59
2023-04-21T16:40:19.427Z,99324.47
2023-04-21T16:41:51.531Z,99331.66
2023-04-21T16:43:26.820Z,99327.56
2023-04-21T16:44:59.593Z,99330.44
2023-04-21T16:46:31.860Z,99337.78
2023-04-21T16:48:04.374Z,99339.69
2023-04-21T16:49:36.673Z,99340.78
2023-04-21T16:51:08.824Z,99338.56
2023-04-21T16:52:41.066Z,99344.03
2023-04-21T16:54:13.226Z,99343.44
2023-04-21T16:55:45.328Z,99341.06
2023-04-21T16:57:18.032Z,99346.59
2023-04-21T16:58:50.311Z,99344.22
2023-04-21T17:00:22.426Z,99337.63
2023-04-21T17:01:54.653Z,99346.63
2023-04-21T17:03:29.437Z,99351.38
2023-04-21T17:05:01.796Z,99345.69
2023-04-21T17:06:34.694Z,99357.44
2023-04-21T17:08:06.919Z,99355.34
2023-04-21T17:09:39.157Z,99363.72
2023-04-21T17:11:11.345Z,99353.91
2023-04-21T17:12:43.486Z,99357.59
2023-04-21T17:14:15.665Z,99362.22
2023-04-21T17:15:48.199Z,99365.72
2023-04-21T17:17:20.434Z,99369.56
2023-04-21T17:18:52.602Z,99376.66
2023-04-21T17:20:24.803Z,99374.22
2023-04-21T17:21:56.945Z,99370.97
2023-04-21T17:23:29.133Z,99373.00
2023-04-21T17:25:01.268Z,99374.84
2023-04-21T17:26:33.448Z,99385.50
2023-04-21T17:28:05.906Z,99383.19
2023-04-21T17:29:38.006Z,99383.56
2023-04-21T17:31:15.178Z,99386.34
2023-04-21T17:32:48.195Z,99394.84
2023-04-21T17:34:20.441Z,99396.94
2023-04-21T17:36:02.554Z,99404.03
2023-04-21T17:37:35.618Z,99407.78
2023-04-21T17:39:08.740Z,99412.16
2023-04-21T17:40:41.019Z,99414.91
2023-04-21T17:42:13.170Z,99413.34
2023-04-21T17:43:45.376Z,99418.50
2023-04-21T17:45:17.827Z,99422.16
2023-04-21T17:46:49.985Z,99423.25
2023-04-21T17:48:22.341Z,99427.66
2023-04-21T17:49:54.492Z,99428.56
2023-04-21T17:51:26.640Z,99435.69
2023-04-21T17:52:58.780Z,99429.78
2023-04-21T17:54:31.212Z,99435.25
2023-04-21T17:56:03.458Z,99438.06
2023-04-21T17:57:35.650Z,99435.50
2023-04-21T17:59:08.119Z,99432.97
2023-04-21T18:00:40.274Z,99440.13
2023-04-21T18:02:12.651Z,99430.78
2023-04-21T18:03:45.033Z,99436.22
2023-04-21T18:05:17.551Z,99439.03
2023-04-21T18:06:50.964Z,99444.38
2023-04-21T18:08:23.120Z,99438.19
2023-04-21T18:09:55.390Z,99432.28
2023-04-21T18:11:27.821Z,99434.06
2023-04-21T18:13:00.126Z,99431.53
2023-04-21T18:14:32.267Z,99435.75
2023-04-21T18:17:37.907Z,99440.72
2023-04-21T18:19:10.055Z,99438.72
2023-04-21T18:20:42.554Z,99441.16
2023-04-21T18:22:14.788Z,99443.66
2023-04-21T18:23:46.990Z,99445.28
2023-04-21T18:25:30.679Z,99453.81